Time;durP1;ratioP1;P1;durP2;ratioP2;P2;SDS_P1;SDS_P2;PMS_P1;PMS_P2;Temp;Humidity;BMP_temperature;BMP_pressure;BME280_temperature;BME280_humidity;BME280_pressure;Samples;Min_cycle;Max_cycle;Signal;HPM_P1;HPM_P2
2023/08/27 00:00:54;;;;;;;12.57;9.10;;;;;;;17.42;83.91;97796.09;4879597;29;20041;-71
2023/08/27 00:03:20;;;;;;;19.50;10.13;;;;;;;17.44;84.05;97788.44;4879554;29;20040;-71
2023/08/27 00:05:46;;;;;;;13.40;9.13;;;;;;;17.38;84.10;97789.63;4895320;29;20510;-72
2023/08/27 00:08:12;;;;;;;13.15;8.93;;;;;;;17.42;83.82;97789.84;4895047;29;20025;-72
2023/08/27 00:10:37;;;;;;;9.20;7.57;;;;;;;17.43;84.03;97792.28;4880647;29;20033;-71
2023/08/27 00:13:03;;;;;;;8.30;6.97;;;;;;;17.39;83.56;97780.34;4879351;29;20490;-72
2023/08/27 00:15:28;;;;;;;9.20;6.75;;;;;;;17.47;83.41;97793.28;4880763;29;20116;-72
2023/08/27 00:17:54;;;;;;;11.13;7.20;;;;;;;17.45;83.65;97795.50;4880659;29;20031;-70
2023/08/27 00:20:19;;;;;;;9.35;6.22;;;;;;;17.48;83.28;97792.16;4895056;29;20052;-71
2023/08/27 00:22:44;;;;;;;10.00;7.50;;;;;;;17.47;83.21;97793.28;4880410;29;20041;-72
2023/08/27 00:25:10;;;;;;;9.63;7.28;;;;;;;17.45;83.10;97778.34;4879538;29;20049;-71
2023/08/27 00:27:35;;;;;;;8.68;7.00;;;;;;;17.36;83.18;97753.75;4880514;29;20036;-71
2023/08/27 00:30:04;;;;;;;9.48;6.80;;;;;;;17.23;83.41;97749.88;4880471;29;20052;-71
2023/08/27 00:32:33;;;;;;;9.57;6.97;;;;;;;17.37;82.71;97754.53;4876145;29;20480;-71
2023/08/27 00:35:00;;;;;;;10.52;7.30;;;;;;;17.41;82.99;97747.41;4873187;29;20049;-71
2023/08/27 00:37:26;;;;;;;10.30;7.03;;;;;;;17.34;82.57;97755.94;4863842;29;20098;-70
2023/08/27 00:39:52;;;;;;;13.60;10.27;;;;;;;17.28;82.74;97768.03;4863915;29;20480;-69
2023/08/27 00:42:18;;;;;;;15.73;11.48;;;;;;;17.16;82.88;97770.41;4863235;29;20025;-68
2023/08/27 00:44:43;;;;;;;10.75;8.95;;;;;;;17.13;83.14;97766.34;4879939;29;20028;-70
2023/08/27 00:47:10;;;;;;;11.27;8.48;;;;;;;17.17;83.19;97766.59;4878682;29;20024;-71
2023/08/27 00:49:37;;;;;;;13.95;8.35;;;;;;;17.23;83.19;97760.75;4894266;29;20041;-70
2023/08/27 00:52:03;;;;;;;12.05;7.90;;;;;;;17.01;83.59;97735.28;4878409;29;20056;-72
2023/08/27 00:54:29;;;;;;;12.70;9.18;;;;;;;17.15;83.24;97752.47;4859955;29;20037;-71
2023/08/27 00:56:55;;;;;;;10.68;9.55;;;;;;;17.07;83.39;97734.09;4862716;29;20028;-73
2023/08/27 00:59:21;;;;;;;11.63;7.70;;;;;;;17.13;83.13;97741.03;4881755;29;20069;-70
2023/08/27 01:01:46;;;;;;;11.38;8.40;;;;;;;17.10;83.26;97755.28;4893266;29;20036;-70
2023/08/27 01:04:11;;;;;;;10.07;7.05;;;;;;;17.08;83.03;97752.81;4879613;29;20040;-71
2023/08/27 01:06:37;;;;;;;9.82;8.10;;;;;;;17.07;83.14;97748.50;4875231;29;20081;-71
2023/08/27 01:09:16;;;;;;;10.00;7.57;;;;;;;17.10;83.05;97744.38;4871719;29;20033;-73
2023/08/27 01:11:52;;;;;;;9.98;7.70;;;;;;;17.14;83.33;97740.78;4878059;29;20103;-73
2023/08/27 01:14:19;;;;;;;11.20;9.27;;;;;;;17.13;83.23;97755.47;4893693;29;20052;-71
2023/08/27 01:16:46;;;;;;;10.55;8.27;;;;;;;17.07;83.17;97743.06;4875187;29;20033;-71
2023/08/27 01:19:13;;;;;;;10.50;8.55;;;;;;;17.08;83.14;97762.91;4874940;29;20041;-72
2023/08/27 01:21:39;;;;;;;9.52;7.80;;;;;;;17.04;83.34;97740.13;4893750;29;20056;-70
2023/08/27 01:24:06;;;;;;;10.02;8.48;;;;;;;17.08;83.30;97733.78;4865561;29;20041;-70
2023/08/27 01:26:46;;;;;;;12.75;7.72;;;;;;;17.10;83.16;97717.19;4877866;29;20041;-70
2023/08/27 01:29:30;;;;;;;11.98;8.50;;;;;;;16.99;83.46;97694.75;4878037;29;20534;-73
2023/08/27 01:32:07;;;;;;;10.65;8.02;;;;;;;17.08;83.29;97724.84;4894026;29;20449;-71
2023/08/27 01:34:33;;;;;;;13.88;9.18;;;;;;;16.94;83.36;97718.53;4884651;29;20043;-71
2023/08/27 01:36:58;;;;;;;13.65;8.23;;;;;;;16.89;83.69;97738.47;4889433;29;20025;-69
2023/08/27 01:39:24;;;;;;;13.52;7.97;;;;;;;16.77;84.08;97740.00;4893366;29;20108;-70
2023/08/27 01:41:51;;;;;;;11.98;8.18;;;;;;;16.78;83.72;97741.63;4866575;29;20037;-69
2023/08/27 01:44:17;;;;;;;8.00;7.03;;;;;;;16.79;83.81;97760.38;4893196;29;20140;-69
2023/08/27 01:46:42;;;;;;;17.20;10.52;;;;;;;16.77;84.15;97756.31;4893289;29;20580;-71
2023/08/27 01:49:08;;;;;;;12.27;8.57;;;;;;;16.73;83.81;97731.66;4893396;29;20388;-71
2023/08/27 01:51:33;;;;;;;14.93;10.02;;;;;;;16.82;83.92;97742.66;4892441;29;20123;-70
2023/08/27 01:53:58;;;;;;;11.68;10.38;;;;;;;16.85;83.72;97747.50;4878740;29;20076;-70
2023/08/27 01:56:24;;;;;;;13.52;10.57;;;;;;;16.78;83.95;97747.06;4893129;29;20040;-71
2023/08/27 01:58:50;;;;;;;16.33;11.13;;;;;;;16.74;84.00;97756.91;4893061;29;20134;-70
2023/08/27 02:01:15;;;;;;;13.88;10.73;;;;;;;16.64;84.60;97746.19;4892630;29;20017;-71
2023/08/27 02:03:40;;;;;;;10.02;9.02;;;;;;;16.70;84.74;97755.88;4892945;29;20055;-71
2023/08/27 02:06:06;;;;;;;15.50;10.07;;;;;;;16.73;84.75;97744.44;4876791;29;20032;-70
2023/08/27 02:08:31;;;;;;;8.82;7.97;;;;;;;16.83;84.54;97755.13;4878472;29;20059;-70
2023/08/27 02:10:56;;;;;;;13.48;9.18;;;;;;;16.88;84.61;97746.91;4876130;29;20056;-71
2023/08/27 02:13:22;;;;;;;9.57;8.57;;;;;;;16.96;84.46;97738.09;4876872;29;20044;-71
2023/08/27 02:15:47;;;;;;;14.70;9.55;;;;;;;16.96;84.69;97740.81;4876806;29;20036;-71
2023/08/27 02:18:13;;;;;;;14.38;8.68;;;;;;;17.00;84.37;97733.66;4861645;29;20048;-71
2023/08/27 02:20:38;;;;;;;14.80;10.05;;;;;;;16.86;84.50;97713.75;4881011;29;20023;-71
2023/08/27 02:23:03;;;;;;;17.15;11.50;;;;;;;16.86;84.16;97711.03;4892306;29;20124;-71
2023/08/27 02:25:29;;;;;;;15.18;10.18;;;;;;;16.73;84.46;97695.47;4892543;29;20032;-70
2023/08/27 02:27:54;;;;;;;15.27;8.63;;;;;;;16.89;84.32;97705.00;4892441;29;20526;-70
2023/08/27 02:30:20;;;;;;;14.43;7.82;;;;;;;16.89;84.40;97688.69;4878008;29;20056;-70
2023/08/27 02:32:45;;;;;;;18.27;10.27;;;;;;;17.02;84.50;97701.50;4892837;29;20048;-71
2023/08/27 02:35:10;;;;;;;10.05;8.55;;;;;;;17.08;84.59;97698.41;4892283;29;20033;-71
2023/08/27 02:37:36;;;;;;;17.08;11.05;;;;;;;17.09;84.56;97705.47;4868573;29;20037;-71
2023/08/27 02:40:02;;;;;;;12.90;9.88;;;;;;;17.01;84.66;97710.81;4886203;29;20037;-70
2023/08/27 02:42:28;;;;;;;16.50;12.05;;;;;;;16.96;84.45;97710.88;4881649;29;20036;-70
2023/08/27 02:44:53;;;;;;;12.73;9.98;;;;;;;16.87;84.69;97715.38;4865504;29;20025;-72
2023/08/27 02:47:19;;;;;;;12.82;9.45;;;;;;;16.92;85.07;97715.31;4868459;29;20120;-70
2023/08/27 02:49:44;;;;;;;12.75;9.30;;;;;;;16.89;84.37;97696.84;4888559;29;20123;-71
2023/08/27 02:52:09;;;;;;;14.65;9.27;;;;;;;17.03;84.48;97720.28;4872613;29;20044;-70
2023/08/27 02:54:35;;;;;;;12.23;9.20;;;;;;;17.09;84.28;97718.25;4876613;29;20112;-70
2023/08/27 02:57:00;;;;;;;11.15;8.77;;;;;;;17.06;84.23;97700.63;4892046;29;20037;-70
2023/08/27 02:59:26;;;;;;;12.63;9.07;;;;;;;17.08;84.55;97687.53;4864090;29;20522;-70
2023/08/27 03:01:52;;;;;;;13.20;9.18;;;;;;;17.16;84.55;97675.97;4869652;29;20030;-70
2023/08/27 03:04:18;;;;;;;11.18;9.68;;;;;;;17.12;84.46;97655.91;4886233;29;20033;-73
2023/08/27 03:06:43;;;;;;;16.45;11.93;;;;;;;17.24;83.77;97675.28;4876486;29;20029;-72
2023/08/27 03:09:08;;;;;;;12.00;9.18;;;;;;;17.13;84.16;97683.91;4876405;29;20123;-73
2023/08/27 03:11:34;;;;;;;14.73;11.60;;;;;;;17.07;84.38;97696.00;4860557;29;20039;-73
2023/08/27 03:13:59;;;;;;;19.85;12.50;;;;;;;16.92;84.27;97685.38;4875937;29;20552;-72
2023/08/27 03:16:25;;;;;;;17.73;12.40;;;;;;;17.01;84.56;97713.53;4876225;29;20048;-71
2023/08/27 03:18:50;;;;;;;11.55;9.95;;;;;;;16.92;84.69;97677.22;4891648;29;20033;-73
2023/08/27 03:21:15;;;;;;;14.20;9.82;;;;;;;17.06;84.44;97684.28;4891569;29;20036;-74
2023/08/27 03:23:41;;;;;;;13.05;10.02;;;;;;;17.13;84.94;97703.75;4881300;29;20032;-71
2023/08/27 03:26:07;;;;;;;14.25;10.45;;;;;;;17.10;84.86;97700.84;4895618;29;20045;-70
2023/08/27 03:28:33;;;;;;;10.88;9.55;;;;;;;17.18;84.14;97690.06;4879926;29;20033;-70
2023/08/27 03:31:01;;;;;;;12.02;9.32;;;;;;;17.29;84.44;97682.56;4896506;29;20041;-70
2023/08/27 03:33:31;;;;;;;12.43;10.02;;;;;;;17.33;84.68;97693.63;4895869;29;20033;-71
2023/08/27 03:35:57;;;;;;;15.07;11.02;;;;;;;17.22;84.36;97668.53;4881239;29;20377;-71
2023/08/27 03:38:23;;;;;;;12.38;9.55;;;;;;;17.21;84.33;97669.63;4895497;29;20024;-70
2023/08/27 03:40:50;;;;;;;12.20;9.60;;;;;;;17.35;84.50;97686.78;4895253;29;20044;-70
2023/08/27 03:43:15;;;;;;;11.27;8.65;;;;;;;17.27;84.35;97668.41;4879479;29;20033;-71
2023/08/27 03:45:41;;;;;;;10.55;8.20;;;;;;;17.39;84.11;97687.78;4895202;29;20124;-71
2023/08/27 03:48:06;;;;;;;11.75;8.98;;;;;;;17.45;84.03;97694.78;4876994;29;20032;-71
2023/08/27 03:50:32;;;;;;;12.18;9.27;;;;;;;17.44;83.97;97695.88;4895249;29;20234;-71
2023/08/27 03:52:57;;;;;;;9.80;8.70;;;;;;;17.45;83.95;97702.94;4879300;29;20029;-70
2023/08/27 03:55:23;;;;;;;11.20;8.15;;;;;;;17.44;83.83;97705.94;4895221;29;20124;-70
2023/08/27 03:57:49;;;;;;;14.23;8.38;;;;;;;17.45;83.71;97708.38;4864062;29;20033;-71
2023/08/27 04:00:15;;;;;;;9.75;8.32;;;;;;;17.24;83.67;97669.84;4879536;29;20495;-72
2023/08/27 04:02:44;;;;;;;10.20;7.65;;;;;;;17.48;83.63;97696.88;4896474;29;20092;-72
2023/08/27 04:05:10;;;;;;;9.25;8.32;;;;;;;17.51;83.56;97701.75;4867172;29;20036;-72
2023/08/27 04:07:36;;;;;;;13.07;8.90;;;;;;;17.51;83.60;97703.63;4897771;29;20029;-71
2023/08/27 04:10:01;;;;;;;14.40;10.40;;;;;;;17.49;83.78;97703.94;4895934;29;20041;-71
2023/08/27 04:12:27;;;;;;;13.57;8.82;;;;;;;17.42;83.91;97692.66;4894419;29;20597;-71
2023/08/27 04:14:52;;;;;;;13.20;9.25;;;;;;;17.37;83.87;97679.13;4895031;29;20120;-70
2023/08/27 04:17:17;;;;;;;11.07;8.88;;;;;;;17.49;83.63;97687.63;4879260;29;20029;-70
2023/08/27 04:19:43;;;;;;;10.98;8.65;;;;;;;17.50;83.98;97672.09;4894730;29;20479;-70
2023/08/27 04:22:08;;;;;;;9.95;8.52;;;;;;;17.52;83.88;97670.72;4894426;29;20025;-72
2023/08/27 04:24:33;;;;;;;12.55;8.85;;;;;;;17.38;84.13;97648.09;4878942;29;20040;-71
2023/08/27 04:26:59;;;;;;;14.40;9.10;;;;;;;17.51;83.97;97657.34;4894551;29;20025;-72
2023/08/27 04:29:26;;;;;;;10.38;8.60;;;;;;;17.47;84.18;97646.28;4879079;29;20385;-72
2023/08/27 04:31:52;;;;;;;14.10;11.48;;;;;;;17.44;84.04;97646.88;4879474;29;20093;-72
2023/08/27 04:34:18;;;;;;;27.63;15.23;;;;;;;17.22;84.07;97633.16;4894046;29;20453;-72
2023/08/27 04:36:43;;;;;;;21.55;13.70;;;;;;;17.23;84.36;97662.78;4894326;29;20033;-72
2023/08/27 04:39:09;;;;;;;17.63;11.10;;;;;;;17.10;84.97;97668.19;4894296;29;20070;-72
2023/08/27 04:41:34;;;;;;;11.52;9.05;;;;;;;16.96;85.45;97651.84;4893858;29;20021;-71
2023/08/27 04:44:01;;;;;;;10.10;8.82;;;;;;;17.10;85.40;97668.19;4894014;29;20083;-73
2023/08/27 04:46:27;;;;;;;10.63;8.80;;;;;;;17.10;85.17;97652.69;4863121;29;20488;-72
2023/08/27 04:48:52;;;;;;;12.18;9.30;;;;;;;17.22;85.16;97660.38;4894163;29;20048;-73
2023/08/27 04:51:18;;;;;;;11.02;9.85;;;;;;;17.31;85.26;97685.78;4893555;29;20036;-71
2023/08/27 04:53:43;;;;;;;12.32;10.45;;;;;;;17.26;85.05;97680.41;4894077;29;20109;-71
2023/08/27 04:56:08;;;;;;;12.15;8.73;;;;;;;17.17;84.97;97668.63;4894286;29;20040;-71
2023/08/27 04:58:34;;;;;;;24.67;13.85;;;;;;;17.28;84.76;97684.47;4875473;29;20508;-71
2023/08/27 05:00:59;;;;;;;32.55;17.77;;;;;;;17.25;84.90;97679.59;4872337;29;20027;-71
2023/08/27 05:03:25;;;;;;;24.23;13.02;;;;;;;17.18;85.16;97670.22;4893866;29;20069;-71
2023/08/27 05:05:54;;;;;;;24.45;13.75;;;;;;;17.22;85.10;97661.16;4893917;29;20048;-71
2023/08/27 05:08:20;;;;;;;39.63;17.58;;;;;;;17.36;85.56;97676.72;4894126;29;20116;-71
2023/08/27 05:10:45;;;;;;;34.50;16.20;;;;;;;17.42;85.32;97676.31;4863192;29;20066;-71
2023/08/27 05:13:11;;;;;;;34.83;17.88;;;;;;;17.47;85.20;97670.78;4893843;29;20149;-72
2023/08/27 05:15:36;;;;;;;38.58;18.13;;;;;;;17.50;85.64;97672.09;4894011;29;20089;-71
2023/08/27 05:18:03;;;;;;;37.03;19.92;;;;;;;17.57;85.46;97678.78;4893972;29;20037;-71
2023/08/27 05:20:28;;;;;;;49.03;21.40;;;;;;;17.51;85.05;97673.69;4893728;29;20029;-72
2023/08/27 05:22:53;;;;;;;50.72;22.42;;;;;;;17.39;85.57;97676.91;4877621;29;20036;-71
2023/08/27 05:25:19;;;;;;;53.85;22.52;;;;;;;17.38;85.41;97686.19;4878016;29;20116;-73
2023/08/27 05:27:44;;;;;;;58.55;23.05;;;;;;;17.31;86.05;97685.78;4877790;29;20041;-71
2023/08/27 05:30:16;;;;;;;76.68;26.48;;;;;;;17.39;85.72;97676.91;4878001;29;20119;-70
2023/08/27 05:32:42;;;;;;;50.72;22.63;;;;;;;17.29;85.89;97666.22;4893111;29;20052;-72
2023/08/27 05:35:09;;;;;;;79.45;27.38;;;;;;;17.35;85.72;97675.91;4893346;29;20159;-72
2023/08/27 05:37:35;;;;;;;66.35;25.73;;;;;;;17.40;86.07;97667.63;4893278;29;20068;-72
2023/08/27 05:40:01;;;;;;;73.07;25.02;;;;;;;17.51;85.59;97674.53;4890998;29;20033;-71
2023/08/27 05:42:27;;;;;;;97.97;30.50;;;;;;;17.45;85.50;97659.38;4878652;29;20044;-71
2023/08/27 05:44:52;;;;;;;50.58;22.58;;;;;;;17.60;85.68;97678.16;4892498;29;20028;-71
2023/08/27 05:47:18;;;;;;;54.00;23.23;;;;;;;17.65;85.59;97663.63;4893173;29;20062;-70
2023/08/27 05:49:43;;;;;;;36.75;20.83;;;;;;;17.72;85.52;97669.50;4877320;29;20032;-71
2023/08/27 05:52:09;;;;;;;37.65;20.60;;;;;;;17.77;85.48;97670.19;4892719;29;20515;-73
2023/08/27 05:54:35;;;;;;;39.00;20.98;;;;;;;17.72;84.94;97653.16;4877173;29;20029;-71
2023/08/27 05:57:00;;;;;;;33.33;19.30;;;;;;;17.86;85.06;97673.00;4877135;29;20047;-71
2023/08/27 05:59:25;;;;;;;46.63;23.13;;;;;;;17.80;84.90;97652.44;4892878;29;20097;-73
2023/08/27 06:01:51;;;;;;;35.33;21.38;;;;;;;17.87;85.29;97661.03;4892439;29;20154;-74
2023/08/27 06:04:17;;;;;;;32.65;20.30;;;;;;;17.91;84.55;97651.94;4858860;29;20022;-73
2023/08/27 06:06:43;;;;;;;36.70;21.67;;;;;;;17.87;85.36;97640.03;4892665;29;20039;-73
2023/08/27 06:09:08;;;;;;;40.30;22.58;;;;;;;18.00;84.67;97643.03;4892695;29;20649;-73
2023/08/27 06:11:33;;;;;;;32.33;20.02;;;;;;;18.03;84.94;97642.41;4892323;29;20100;-73
2023/08/27 06:13:59;;;;;;;36.63;21.10;;;;;;;17.97;85.39;97627.31;4892588;29;20029;-75
2023/08/27 06:16:24;;;;;;;31.40;19.02;;;;;;;18.12;85.08;97635.13;4871080;29;20037;-73
2023/08/27 06:18:50;;;;;;;29.30;17.75;;;;;;;18.19;84.94;97616.44;4872031;29;20065;-71
2023/08/27 06:21:17;;;;;;;24.88;17.10;;;;;;;18.33;84.83;97614.47;4892321;29;20033;-73
2023/08/27 06:23:43;;;;;;;28.27;15.50;;;;;;;18.42;84.74;97615.34;4892250;29;20029;-73
2023/08/27 06:26:08;;;;;;;21.15;15.02;;;;;;;18.45;84.49;97606.56;4849265;29;20131;-73
2023/08/27 06:28:34;;;;;;;23.40;15.40;;;;;;;18.35;84.47;97583.06;4876999;29;20112;-73
2023/08/27 06:30:59;;;;;;;22.25;14.90;;;;;;;18.55;84.31;97606.34;4876549;29;20033;-70
2023/08/27 06:33:25;;;;;;;21.33;15.10;;;;;;;18.32;83.97;97567.31;4891503;29;20048;-71
2023/08/27 06:35:53;;;;;;;26.70;17.42;;;;;;;18.65;84.17;97617.00;4890511;29;20095;-72
2023/08/27 06:38:18;;;;;;;25.98;17.80;;;;;;;18.67;84.18;97606.56;4891759;29;20032;-73
2023/08/27 06:40:44;;;;;;;30.38;18.08;;;;;;;18.65;84.43;97611.53;4876587;29;20531;-73
2023/08/27 06:43:10;;;;;;;26.70;17.90;;;;;;;18.67;84.37;97597.59;4891764;29;20033;-71
2023/08/27 06:45:42;;;;;;;31.02;19.20;;;;;;;18.70;84.63;97586.88;4885503;29;20037;-72
2023/08/27 06:48:09;;;;;;;36.83;20.08;;;;;;;18.76;84.61;97595.75;4885970;29;20579;-71
2023/08/27 06:50:35;;;;;;;27.45;17.13;;;;;;;18.65;84.97;97578.81;4867509;29;20116;-71
2023/08/27 06:53:02;;;;;;;28.48;18.13;;;;;;;18.58;85.21;97581.16;4891653;29;20072;-74
2023/08/27 06:55:27;;;;;;;24.08;16.63;;;;;;;18.59;85.31;97580.06;4892043;29;20112;-73
2023/08/27 06:57:53;;;;;;;23.42;15.88;;;;;;;18.53;85.73;97584.00;4891966;29;20037;-74
2023/08/27 07:00:19;;;;;;;25.90;17.35;;;;;;;18.56;85.61;97605.22;4887957;29;20022;-73
2023/08/27 07:02:44;;;;;;;27.48;17.30;;;;;;;18.48;85.11;97595.06;4884512;29;20045;-74
2023/08/27 07:05:10;;;;;;;25.65;16.05;;;;;;;18.47;85.51;97604.34;4876338;29;20145;-73
2023/08/27 07:07:37;;;;;;;23.25;16.80;;;;;;;18.37;85.49;97612.75;4891796;29;20041;-73
2023/08/27 07:10:04;;;;;;;29.65;17.23;;;;;;;18.27;86.40;97630.16;4884315;29;20399;-74
2023/08/27 07:12:33;;;;;;;35.05;18.75;;;;;;;18.17;86.59;97640.47;4871016;29;20492;-72
2023/08/27 07:14:59;;;;;;;39.88;21.67;;;;;;;17.98;87.94;97645.25;4889569;29;20025;-74
2023/08/27 07:17:25;;;;;;;36.10;20.42;;;;;;;17.89;88.45;97648.72;4891585;29;20518;-73
2023/08/27 07:19:50;;;;;;;37.13;21.98;;;;;;;17.85;88.66;97669.47;4876204;29;20068;-72
2023/08/27 07:22:16;;;;;;;39.35;22.20;;;;;;;17.74;89.15;97662.63;4860337;29;20033;-73
2023/08/27 07:24:42;;;;;;;48.97;24.15;;;;;;;17.63;89.46;97657.69;4891791;29;20029;-73
2023/08/27 07:27:09;;;;;;;48.03;25.35;;;;;;;17.67;89.30;97662.22;4879215;29;20033;-73
2023/08/27 07:29:35;;;;;;;50.13;25.42;;;;;;;17.75;89.05;97664.25;4891772;29;20040;-72
2023/08/27 07:32:00;;;;;;;68.63;29.77;;;;;;;17.76;89.24;97644.06;4890028;29;20057;-72
2023/08/27 07:34:26;;;;;;;64.95;28.75;;;;;;;17.77;89.17;97623.91;4880839;29;20490;-72
2023/08/27 07:36:53;;;;;;;62.08;28.25;;;;;;;17.65;89.16;97642.66;4891423;29;20092;-73
2023/08/27 07:39:18;;;;;;;59.72;28.35;;;;;;;17.70;89.95;97660.81;4891527;29;20021;-72
2023/08/27 07:41:44;;;;;;;57.03;26.92;;;;;;;17.67;90.04;97672.31;4860144;29;20068;-72
2023/08/27 07:44:09;;;;;;;60.17;28.77;;;;;;;17.57;90.48;97683.41;4891156;29;20048;-73
2023/08/27 07:46:35;;;;;;;63.63;29.00;;;;;;;17.55;90.57;97686.41;4891179;29;20088;-72
2023/08/27 07:49:00;;;;;;;53.90;27.65;;;;;;;17.55;90.62;97683.69;4891258;29;20080;-73
2023/08/27 07:51:25;;;;;;;54.70;28.05;;;;;;;17.63;89.98;97677.56;4859709;29;20037;-73
2023/08/27 07:53:51;;;;;;;54.42;26.33;;;;;;;17.51;90.50;97674.53;4891284;29;20036;-73
2023/08/27 07:56:16;;;;;;;44.10;23.58;;;;;;;17.53;90.59;97680.47;4891130;29;20488;-73
2023/08/27 07:58:42;;;;;;;40.63;23.13;;;;;;;17.54;90.07;97673.13;4891165;29;20057;-73
2023/08/27 08:01:07;;;;;;;52.85;24.90;;;;;;;17.71;89.93;97684.22;4890930;29;20041;-73
2023/08/27 08:03:35;;;;;;;41.63;23.23;;;;;;;17.78;89.69;97685.41;4890546;29;20039;-73
2023/08/27 08:06:01;;;;;;;40.83;22.38;;;;;;;17.63;90.04;97677.56;4875368;29;20041;-74
2023/08/27 08:08:27;;;;;;;34.17;20.40;;;;;;;17.75;89.80;97696.94;4892740;29;20029;-73
2023/08/27 08:10:56;;;;;;;34.65;21.55;;;;;;;17.77;89.34;97675.66;4894448;29;20048;-73
2023/08/27 08:13:22;;;;;;;32.60;19.98;;;;;;;17.80;89.17;97691.41;4893661;29;20039;-73
2023/08/27 08:15:48;;;;;;;29.85;20.17;;;;;;;17.81;89.40;97679.38;4877853;29;20088;-73
2023/08/27 08:18:14;;;;;;;26.67;18.92;;;;;;;17.85;88.73;97685.81;4862848;29;20036;-74
2023/08/27 08:20:39;;;;;;;31.42;19.30;;;;;;;17.84;88.89;97677.97;4877095;29;20124;-73
2023/08/27 08:23:05;;;;;;;34.00;21.08;;;;;;;17.94;88.53;97692.19;4893556;29;20036;-73
2023/08/27 08:25:31;;;;;;;29.55;19.60;;;;;;;17.86;88.60;97686.63;4894067;29;20044;-72
2023/08/27 08:27:56;;;;;;;34.40;20.13;;;;;;;17.95;88.34;97696.53;4876908;29;20029;-73
2023/08/27 08:30:22;;;;;;;29.25;19.92;;;;;;;17.93;87.91;97704.19;4874729;29;20465;-73
2023/08/27 08:32:47;;;;;;;29.95;19.92;;;;;;;17.81;88.37;97712.06;4893775;29;20036;-73
2023/08/27 08:35:13;;;;;;;29.83;20.40;;;;;;;17.70;88.48;97705.22;4878579;29;20044;-73
2023/08/27 08:37:38;;;;;;;29.10;19.52;;;;;;;17.79;88.71;97713.47;4879729;29;20033;-74
2023/08/27 08:40:04;;;;;;;26.95;18.52;;;;;;;17.70;88.54;97688.88;4893994;29;20037;-74
2023/08/27 08:42:33;;;;;;;25.52;18.05;;;;;;;17.82;88.49;97691.09;4893764;29;20394;-74
2023/08/27 08:45:13;;;;;;;25.42;17.30;;;;;;;18.21;87.94;97715.06;4878260;29;20049;-73
2023/08/27 08:47:39;;;;;;;29.02;18.63;;;;;;;18.30;87.54;97708.59;4894084;29;20388;-74
2023/08/27 08:50:07;;;;;;;22.08;16.08;;;;;;;18.38;86.92;97726.16;4897144;29;20032;-74
2023/08/27 08:52:37;;;;;;;25.98;17.80;;;;;;;18.44;86.37;97724.91;4887089;29;20063;-74
2023/08/27 08:55:06;;;;;;;24.33;17.73;;;;;;;18.39;86.42;97706.75;4863017;29;20052;-74
2023/08/27 08:57:33;;;;;;;23.70;17.95;;;;;;;18.41;86.46;97692.81;4893697;29;20048;-75
2023/08/27 08:59:59;;;;;;;24.23;16.25;;;;;;;18.60;86.59;97707.13;4893616;29;20029;-73
2023/08/27 09:02:24;;;;;;;26.80;18.70;;;;;;;18.68;86.32;97698.22;4879254;29;20373;-74
2023/08/27 09:04:50;;;;;;;25.83;17.33;;;;;;;18.61;85.86;97695.13;4893663;29;20171;-74
2023/08/27 09:07:16;;;;;;;23.58;17.30;;;;;;;18.65;86.13;97687.91;4893537;29;20105;-74
2023/08/27 09:09:42;;;;;;;25.92;16.55;;;;;;;18.80;85.91;97709.41;4877993;29;20029;-74
2023/08/27 09:12:08;;;;;;;22.55;16.38;;;;;;;18.72;85.07;97696.47;4877568;29;20392;-73
2023/08/27 09:14:35;;;;;;;22.85;16.73;;;;;;;18.82;85.00;97712.63;4893480;29;20556;-75
2023/08/27 09:17:00;;;;;;;17.92;13.18;;;;;;;18.77;84.89;97723.66;4893497;29;20041;-73
2023/08/27 09:19:25;;;;;;;20.00;13.32;;;;;;;18.79;84.35;97726.88;4878025;29;20352;-73
2023/08/27 09:21:51;;;;;;;17.60;14.00;;;;;;;18.79;84.28;97726.06;4877602;29;20037;-74
2023/08/27 09:24:16;;;;;;;19.85;13.27;;;;;;;18.76;84.07;97721.25;4893211;29;20029;-73
2023/08/27 09:26:42;;;;;;;19.63;14.63;;;;;;;18.78;83.75;97730.72;4893221;29;20036;-73
2023/08/27 09:29:07;;;;;;;19.73;14.45;;;;;;;18.71;83.36;97710.44;4878892;29;20041;-73
2023/08/27 09:31:41;;;;;;;19.83;12.57;;;;;;;18.83;82.87;97689.69;4878182;29;20149;-73
2023/08/27 09:34:06;;;;;;;19.65;13.75;;;;;;;19.14;82.76;97712.38;4877656;29;20099;-73
2023/08/27 09:36:36;;;;;;;15.77;11.88;;;;;;;19.34;82.71;97716.53;4877196;29;20522;-73
2023/08/27 09:39:10;;;;;;;18.48;13.93;;;;;;;19.57;82.52;97714.56;4877493;29;20044;-74
2023/08/27 09:41:39;;;;;;;17.77;14.68;;;;;;;19.73;82.64;97702.94;4892957;29;20151;-74
2023/08/27 09:44:05;;;;;;;23.50;15.38;;;;;;;19.95;82.41;97702.06;4893166;29;20029;-72
2023/08/27 09:46:31;;;;;;;21.00;14.63;;;;;;;20.07;81.80;97707.69;4892922;29;20055;-72
2023/08/27 09:49:01;;;;;;;15.00;11.75;;;;;;;20.15;81.50;97698.72;4878587;29;20029;-72
2023/08/27 09:51:30;;;;;;;17.38;12.85;;;;;;;20.18;81.14;97687.16;4905213;29;20037;-72
2023/08/27 09:53:56;;;;;;;15.93;12.32;;;;;;;20.19;81.00;97683.28;4876494;29;20029;-72
2023/08/27 09:56:23;;;;;;;15.27;11.82;;;;;;;20.14;81.14;97688.88;4892683;29;20045;-72
2023/08/27 09:58:49;;;;;;;16.52;12.65;;;;;;;20.26;80.67;97686.38;4892789;29;20033;-72
2023/08/27 10:01:15;;;;;;;15.88;12.10;;;;;;;20.30;80.42;97690.09;4878080;29;20535;-71
2023/08/27 10:03:40;;;;;;;16.10;11.75;;;;;;;20.34;79.97;97680.13;4892695;29;20431;-72
2023/08/27 10:06:05;;;;;;;15.05;12.77;;;;;;;20.35;79.81;97687.19;4892576;29;20048;-72
2023/08/27 10:08:31;;;;;;;14.65;11.20;;;;;;;20.29;79.51;97677.53;4877930;29;20033;-71
2023/08/27 10:11:08;;;;;;;12.65;10.25;;;;;;;20.40;78.75;97680.75;4861996;29;20862;-72
2023/08/27 10:13:34;;;;;;;13.18;10.43;;;;;;;20.44;79.07;97674.31;4877944;29;20116;-72
2023/08/27 10:15:59;;;;;;;13.80;10.35;;;;;;;20.40;78.92;97667.91;4876866;29;20116;-72
2023/08/27 10:18:25;;;;;;;12.07;10.23;;;;;;;20.32;78.62;97673.38;4892512;29;20085;-72
2023/08/27 10:20:51;;;;;;;13.07;11.45;;;;;;;20.28;79.07;97686.84;4891903;29;20025;-72
2023/08/27 10:23:17;;;;;;;13.40;11.90;;;;;;;20.19;79.38;97672.34;4860939;29;20040;-72
2023/08/27 10:25:42;;;;;;;11.80;10.55;;;;;;;20.12;79.18;97676.69;4892332;29;20040;-72
2023/08/27 10:28:09;;;;;;;10.70;9.65;;;;;;;19.81;78.67;97674.81;4876686;29;20072;-72
2023/08/27 10:30:36;;;;;;;14.20;10.85;;;;;;;19.55;78.89;97645.78;4875828;29;20124;-72
2023/08/27 10:33:02;;;;;;;13.25;10.98;;;;;;;19.59;79.08;97663.16;4877551;29;20053;-71
2023/08/27 10:35:27;;;;;;;13.38;11.00;;;;;;;19.64;79.10;97654.81;4892143;29;20104;-71
2023/08/27 10:37:54;;;;;;;15.40;10.25;;;;;;;19.60;78.88;97653.84;4892456;29;20138;-71
2023/08/27 10:40:20;;;;;;;13.07;11.65;;;;;;;19.67;79.25;97651.47;4879785;29;20036;-72
2023/08/27 10:42:45;;;;;;;12.98;11.52;;;;;;;19.75;79.79;97617.88;4882825;29;20041;-71
2023/08/27 10:45:21;;;;;;;14.45;12.18;;;;;;;19.99;79.64;97626.47;4871818;29;20029;-71
2023/08/27 10:48:18;;;;;;;16.70;10.68;;;;;;;20.02;79.13;97634.03;4883663;29;20045;-72
2023/08/27 10:50:54;;;;;;;13.68;11.23;;;;;;;19.93;79.13;97625.00;4885883;29;20041;-72
2023/08/27 10:53:20;;;;;;;;;;;;;;;19.67;79.79;97630.44;4877873;29;20112;-71
2023/08/27 10:55:52;;;;;;;12.05;9.02;;;;;;;19.97;78.29;97620.53;4882360;29;20204;-71
2023/08/27 10:58:22;;;;;;;13.68;10.18;;;;;;;20.09;78.07;97628.09;4885835;29;20053;-71
2023/08/27 11:01:06;;;;;;;10.65;9.55;;;;;;;20.25;77.52;97632.00;4872045;29;20120;-71
2023/08/27 11:03:57;;;;;;;12.73;9.70;;;;;;;20.57;76.86;97629.59;4866121;29;20037;-71
2023/08/27 11:06:43;;;;;;;12.23;10.20;;;;;;;20.88;76.48;97628.59;4872651;29;20057;-73
2023/08/27 11:09:14;;;;;;;13.32;9.15;;;;;;;20.90;75.74;97631.81;4871725;29;20045;-72
2023/08/27 11:11:42;;;;;;;12.98;10.27;;;;;;;20.87;76.20;97629.72;4870137;29;20049;-71
2023/08/27 11:14:08;;;;;;;11.65;10.13;;;;;;;20.73;76.69;97620.88;4885631;29;20029;-71
2023/08/27 11:16:46;;;;;;;12.63;10.75;;;;;;;20.72;76.45;97632.97;4858847;29;20058;-71
2023/08/27 11:19:12;;;;;;;11.55;9.70;;;;;;;20.60;77.59;97650.88;4888088;29;20044;-71